sensor_id;sensor_type;location;lat;lon;timestamp;P1;durP1;ratioP1;P2;durP2;ratioP2
11034;SDS011;5571;48.110;-1.706;2023-09-07T00:00:48;24.50;;;9.38;;
11034;SDS011;5571;48.110;-1.706;2023-09-07T00:03:14;30.02;;;6.85;;
11034;SDS011;5571;48.110;-1.706;2023-09-07T00:05:40;29.10;;;6.90;;
11034;SDS011;5571;48.110;-1.706;2023-09-07T00:08:06;29.67;;;6.88;;
11034;SDS011;5571;48.110;-1.706;2023-09-07T00:10:32;35.00;;;6.88;;
11034;SDS011;5571;48.110;-1.706;2023-09-07T00:13:01;29.48;;;6.38;;
11034;SDS011;5571;48.110;-1.706;2023-09-07T00:15:28;29.48;;;6.63;;
11034;SDS011;5571;48.110;-1.706;2023-09-07T00:17:55;28.17;;;6.47;;
11034;SDS011;5571;48.110;-1.706;2023-09-07T00:20:21;28.25;;;6.57;;
11034;SDS011;5571;48.110;-1.706;2023-09-07T00:22:47;25.83;;;6.40;;
11034;SDS011;5571;48.110;-1.706;2023-09-07T00:25:12;21.75;;;6.10;;
11034;SDS011;5571;48.110;-1.706;2023-09-07T00:27:38;26.80;;;6.43;;
11034;SDS011;5571;48.110;-1.706;2023-09-07T00:30:04;22.45;;;6.90;;
11034;SDS011;5571;48.110;-1.706;2023-09-07T00:32:40;30.77;;;6.40;;
11034;SDS011;5571;48.110;-1.706;2023-09-07T00:35:06;24.73;;;6.25;;
11034;SDS011;5571;48.110;-1.706;2023-09-07T00:37:32;29.30;;;6.00;;
11034;SDS011;5571;48.110;-1.706;2023-09-07T00:39:58;20.90;;;6.28;;
11034;SDS011;5571;48.110;-1.706;2023-09-07T00:42:24;31.42;;;6.68;;
11034;SDS011;5571;48.110;-1.706;2023-09-07T00:44:49;23.52;;;6.22;;
11034;SDS011;5571;48.110;-1.706;2023-09-07T00:47:15;31.33;;;7.88;;
11034;SDS011;5571;48.110;-1.706;2023-09-07T00:49:41;22.90;;;6.35;;
11034;SDS011;5571;48.110;-1.706;2023-09-07T00:52:07;30.73;;;7.22;;
11034;SDS011;5571;48.110;-1.706;2023-09-07T00:54:34;26.17;;;6.30;;
11034;SDS011;5571;48.110;-1.706;2023-09-07T00:57:03;27.20;;;6.60;;
11034;SDS011;5571;48.110;-1.706;2023-09-07T00:59:29;28.98;;;7.55;;
11034;SDS011;5571;48.110;-1.706;2023-09-07T01:01:56;30.40;;;8.48;;
11034;SDS011;5571;48.110;-1.706;2023-09-07T01:04:22;24.30;;;6.78;;
11034;SDS011;5571;48.110;-1.706;2023-09-07T01:06:51;33.72;;;6.30;;
11034;SDS011;5571;48.110;-1.706;2023-09-07T01:09:23;30.90;;;6.80;;
11034;SDS011;5571;48.110;-1.706;2023-09-07T01:11:51;28.00;;;6.80;;
11034;SDS011;5571;48.110;-1.706;2023-09-07T01:14:17;33.50;;;6.90;;
11034;SDS011;5571;48.110;-1.706;2023-09-07T01:16:43;26.30;;;7.25;;
11034;SDS011;5571;48.110;-1.706;2023-09-07T01:19:09;27.33;;;6.32;;
11034;SDS011;5571;48.110;-1.706;2023-09-07T01:21:36;28.45;;;6.53;;
11034;SDS011;5571;48.110;-1.706;2023-09-07T01:24:04;27.50;;;6.07;;
11034;SDS011;5571;48.110;-1.706;2023-09-07T01:26:31;30.77;;;6.40;;
11034;SDS011;5571;48.110;-1.706;2023-09-07T01:28:57;31.65;;;6.22;;
11034;SDS011;5571;48.110;-1.706;2023-09-07T01:31:23;21.60;;;6.47;;
11034;SDS011;5571;48.110;-1.706;2023-09-07T01:33:48;29.90;;;6.95;;
11034;SDS011;5571;48.110;-1.706;2023-09-07T01:36:14;32.13;;;6.85;;
11034;SDS011;5571;48.110;-1.706;2023-09-07T01:38:40;21.15;;;6.18;;
11034;SDS011;5571;48.110;-1.706;2023-09-07T01:41:05;35.40;;;7.25;;
11034;SDS011;5571;48.110;-1.706;2023-09-07T01:43:31;27.20;;;6.80;;
11034;SDS011;5571;48.110;-1.706;2023-09-07T01:45:56;26.65;;;6.90;;
11034;SDS011;5571;48.110;-1.706;2023-09-07T01:48:22;31.73;;;6.70;;
11034;SDS011;5571;48.110;-1.706;2023-09-07T01:50:51;34.33;;;6.68;;
11034;SDS011;5571;48.110;-1.706;2023-09-07T01:53:18;33.58;;;6.90;;
11034;SDS011;5571;48.110;-1.706;2023-09-07T01:55:43;28.95;;;6.82;;
11034;SDS011;5571;48.110;-1.706;2023-09-07T01:58:09;24.42;;;6.30;;
11034;SDS011;5571;48.110;-1.706;2023-09-07T02:00:38;29.17;;;6.82;;
11034;SDS011;5571;48.110;-1.706;2023-09-07T02:03:04;29.15;;;6.78;;
11034;SDS011;5571;48.110;-1.706;2023-09-07T02:05:30;38.13;;;7.15;;
11034;SDS011;5571;48.110;-1.706;2023-09-07T02:07:57;30.52;;;7.10;;
11034;SDS011;5571;48.110;-1.706;2023-09-07T02:10:23;38.53;;;6.95;;
11034;SDS011;5571;48.110;-1.706;2023-09-07T02:12:49;28.60;;;6.97;;
11034;SDS011;5571;48.110;-1.706;2023-09-07T02:15:14;34.90;;;7.07;;
11034;SDS011;5571;48.110;-1.706;2023-09-07T02:17:40;31.80;;;6.65;;
11034;SDS011;5571;48.110;-1.706;2023-09-07T02:20:09;34.88;;;7.30;;
11034;SDS011;5571;48.110;-1.706;2023-09-07T02:22:36;29.58;;;7.63;;
11034;SDS011;5571;48.110;-1.706;2023-09-07T02:25:02;32.10;;;6.82;;
11034;SDS011;5571;48.110;-1.706;2023-09-07T02:27:30;27.58;;;7.28;;
11034;SDS011;5571;48.110;-1.706;2023-09-07T02:29:57;43.58;;;13.50;;
11034;SDS011;5571;48.110;-1.706;2023-09-07T02:32:22;45.67;;;18.42;;
11034;SDS011;5571;48.110;-1.706;2023-09-07T02:34:48;59.92;;;24.92;;
11034;SDS011;5571;48.110;-1.706;2023-09-07T02:37:14;55.15;;;26.08;;
11034;SDS011;5571;48.110;-1.706;2023-09-07T02:39:41;49.20;;;19.70;;
11034;SDS011;5571;48.110;-1.706;2023-09-07T02:42:07;29.85;;;8.82;;
11034;SDS011;5571;48.110;-1.706;2023-09-07T02:44:32;23.70;;;7.55;;
11034;SDS011;5571;48.110;-1.706;2023-09-07T02:46:58;36.38;;;7.28;;
11034;SDS011;5571;48.110;-1.706;2023-09-07T02:49:24;29.77;;;7.15;;
11034;SDS011;5571;48.110;-1.706;2023-09-07T02:51:49;30.13;;;7.25;;
11034;SDS011;5571;48.110;-1.706;2023-09-07T02:54:15;34.67;;;7.40;;
11034;SDS011;5571;48.110;-1.706;2023-09-07T02:56:41;30.55;;;6.93;;
11034;SDS011;5571;48.110;-1.706;2023-09-07T02:59:06;23.85;;;6.57;;
11034;SDS011;5571;48.110;-1.706;2023-09-07T03:01:32;29.35;;;6.47;;
11034;SDS011;5571;48.110;-1.706;2023-09-07T03:03:57;31.67;;;6.78;;
11034;SDS011;5571;48.110;-1.706;2023-09-07T03:06:23;24.80;;;6.68;;
11034;SDS011;5571;48.110;-1.706;2023-09-07T03:08:49;25.80;;;6.13;;
11034;SDS011;5571;48.110;-1.706;2023-09-07T03:11:14;26.80;;;7.00;;
11034;SDS011;5571;48.110;-1.706;2023-09-07T03:13:40;30.52;;;6.25;;
11034;SDS011;5571;48.110;-1.706;2023-09-07T03:16:07;24.05;;;6.78;;
11034;SDS011;5571;48.110;-1.706;2023-09-07T03:18:32;26.42;;;6.55;;
11034;SDS011;5571;48.110;-1.706;2023-09-07T03:20:59;20.02;;;6.35;;
11034;SDS011;5571;48.110;-1.706;2023-09-07T03:23:25;34.28;;;7.20;;
11034;SDS011;5571;48.110;-1.706;2023-09-07T03:25:52;26.13;;;6.82;;
11034;SDS011;5571;48.110;-1.706;2023-09-07T03:28:18;28.45;;;6.50;;
11034;SDS011;5571;48.110;-1.706;2023-09-07T03:30:44;21.55;;;6.20;;
11034;SDS011;5571;48.110;-1.706;2023-09-07T03:33:09;21.67;;;6.60;;
11034;SDS011;5571;48.110;-1.706;2023-09-07T03:35:35;22.88;;;6.18;;
11034;SDS011;5571;48.110;-1.706;2023-09-07T03:38:01;25.30;;;6.72;;
11034;SDS011;5571;48.110;-1.706;2023-09-07T03:40:26;24.25;;;7.28;;
11034;SDS011;5571;48.110;-1.706;2023-09-07T03:42:52;36.78;;;7.15;;
11034;SDS011;5571;48.110;-1.706;2023-09-07T03:45:18;27.38;;;6.70;;
11034;SDS011;5571;48.110;-1.706;2023-09-07T03:47:43;25.55;;;6.75;;
11034;SDS011;5571;48.110;-1.706;2023-09-07T03:50:09;23.17;;;6.72;;
11034;SDS011;5571;48.110;-1.706;2023-09-07T03:52:34;26.13;;;7.40;;
11034;SDS011;5571;48.110;-1.706;2023-09-07T03:55:00;28.95;;;7.05;;
11034;SDS011;5571;48.110;-1.706;2023-09-07T03:57:26;26.35;;;7.03;;
11034;SDS011;5571;48.110;-1.706;2023-09-07T03:59:52;25.38;;;6.10;;
11034;SDS011;5571;48.110;-1.706;2023-09-07T04:02:20;24.85;;;6.55;;
11034;SDS011;5571;48.110;-1.706;2023-09-07T04:04:50;25.42;;;6.47;;
11034;SDS011;5571;48.110;-1.706;2023-09-07T04:07:19;27.20;;;6.93;;
11034;SDS011;5571;48.110;-1.706;2023-09-07T04:09:45;22.10;;;6.45;;
11034;SDS011;5571;48.110;-1.706;2023-09-07T04:12:11;31.42;;;6.85;;
11034;SDS011;5571;48.110;-1.706;2023-09-07T04:14:37;25.27;;;6.43;;
11034;SDS011;5571;48.110;-1.706;2023-09-07T04:17:03;26.65;;;6.82;;
11034;SDS011;5571;48.110;-1.706;2023-09-07T04:19:29;18.92;;;6.60;;
11034;SDS011;5571;48.110;-1.706;2023-09-07T04:21:56;32.83;;;7.40;;
11034;SDS011;5571;48.110;-1.706;2023-09-07T04:24:22;29.60;;;7.43;;
11034;SDS011;5571;48.110;-1.706;2023-09-07T04:26:48;22.35;;;6.68;;
11034;SDS011;5571;48.110;-1.706;2023-09-07T04:29:14;31.83;;;6.95;;
11034;SDS011;5571;48.110;-1.706;2023-09-07T04:31:40;28.52;;;6.85;;
11034;SDS011;5571;48.110;-1.706;2023-09-07T04:34:06;25.35;;;6.63;;
11034;SDS011;5571;48.110;-1.706;2023-09-07T04:36:32;22.17;;;6.57;;
11034;SDS011;5571;48.110;-1.706;2023-09-07T04:38:58;28.60;;;6.38;;
11034;SDS011;5571;48.110;-1.706;2023-09-07T04:41:24;28.75;;;6.82;;
11034;SDS011;5571;48.110;-1.706;2023-09-07T04:43:49;50.83;;;20.55;;
11034;SDS011;5571;48.110;-1.706;2023-09-07T04:46:15;39.00;;;15.45;;
11034;SDS011;5571;48.110;-1.706;2023-09-07T04:48:42;29.35;;;13.30;;
11034;SDS011;5571;48.110;-1.706;2023-09-07T04:51:10;36.13;;;12.32;;
11034;SDS011;5571;48.110;-1.706;2023-09-07T04:53:38;41.53;;;18.63;;
11034;SDS011;5571;48.110;-1.706;2023-09-07T04:56:05;34.08;;;12.75;;
11034;SDS011;5571;48.110;-1.706;2023-09-07T04:58:32;30.15;;;8.50;;
11034;SDS011;5571;48.110;-1.706;2023-09-07T05:01:07;23.77;;;6.60;;
11034;SDS011;5571;48.110;-1.706;2023-09-07T05:03:35;27.38;;;7.22;;
11034;SDS011;5571;48.110;-1.706;2023-09-07T05:06:01;29.70;;;7.00;;
11034;SDS011;5571;48.110;-1.706;2023-09-07T05:08:28;27.35;;;6.97;;
11034;SDS011;5571;48.110;-1.706;2023-09-07T05:10:57;27.02;;;6.80;;
11034;SDS011;5571;48.110;-1.706;2023-09-07T05:13:25;32.88;;;6.95;;
11034;SDS011;5571;48.110;-1.706;2023-09-07T05:15:52;27.52;;;6.88;;
11034;SDS011;5571;48.110;-1.706;2023-09-07T05:18:18;23.10;;;6.93;;
11034;SDS011;5571;48.110;-1.706;2023-09-07T05:20:44;24.75;;;6.95;;
11034;SDS011;5571;48.110;-1.706;2023-09-07T05:23:12;20.95;;;6.78;;
11034;SDS011;5571;48.110;-1.706;2023-09-07T05:25:50;29.48;;;7.50;;
11034;SDS011;5571;48.110;-1.706;2023-09-07T05:28:20;28.85;;;7.75;;
11034;SDS011;5571;48.110;-1.706;2023-09-07T05:30:47;31.70;;;7.13;;
11034;SDS011;5571;48.110;-1.706;2023-09-07T05:33:14;29.00;;;7.25;;
11034;SDS011;5571;48.110;-1.706;2023-09-07T05:35:41;27.92;;;7.30;;
11034;SDS011;5571;48.110;-1.706;2023-09-07T05:38:07;32.88;;;7.15;;
11034;SDS011;5571;48.110;-1.706;2023-09-07T05:40:37;36.05;;;7.22;;
11034;SDS011;5571;48.110;-1.706;2023-09-07T05:43:03;39.08;;;7.45;;
11034;SDS011;5571;48.110;-1.706;2023-09-07T05:45:29;26.08;;;6.82;;
11034;SDS011;5571;48.110;-1.706;2023-09-07T05:47:56;30.27;;;7.45;;
11034;SDS011;5571;48.110;-1.706;2023-09-07T05:50:22;23.83;;;6.65;;
11034;SDS011;5571;48.110;-1.706;2023-09-07T05:52:48;29.75;;;7.70;;
11034;SDS011;5571;48.110;-1.706;2023-09-07T05:55:14;33.63;;;7.00;;
11034;SDS011;5571;48.110;-1.706;2023-09-07T05:57:40;22.58;;;6.72;;
11034;SDS011;5571;48.110;-1.706;2023-09-07T06:00:06;26.05;;;7.63;;
11034;SDS011;5571;48.110;-1.706;2023-09-07T06:02:32;21.20;;;6.38;;
11034;SDS011;5571;48.110;-1.706;2023-09-07T06:04:58;19.75;;;6.93;;
11034;SDS011;5571;48.110;-1.706;2023-09-07T06:07:23;28.23;;;7.45;;
11034;SDS011;5571;48.110;-1.706;2023-09-07T06:09:49;32.25;;;8.07;;
11034;SDS011;5571;48.110;-1.706;2023-09-07T06:12:14;28.20;;;6.85;;
11034;SDS011;5571;48.110;-1.706;2023-09-07T06:14:40;22.33;;;6.28;;
11034;SDS011;5571;48.110;-1.706;2023-09-07T06:17:06;32.35;;;7.20;;
11034;SDS011;5571;48.110;-1.706;2023-09-07T06:19:31;26.52;;;7.40;;
11034;SDS011;5571;48.110;-1.706;2023-09-07T06:21:57;26.23;;;6.88;;
11034;SDS011;5571;48.110;-1.706;2023-09-07T06:24:23;24.15;;;6.93;;
11034;SDS011;5571;48.110;-1.706;2023-09-07T06:26:49;26.00;;;7.25;;
11034;SDS011;5571;48.110;-1.706;2023-09-07T06:29:14;22.92;;;6.75;;
11034;SDS011;5571;48.110;-1.706;2023-09-07T06:31:40;22.90;;;6.22;;
11034;SDS011;5571;48.110;-1.706;2023-09-07T06:34:06;29.73;;;7.13;;
11034;SDS011;5571;48.110;-1.706;2023-09-07T06:36:31;33.22;;;6.95;;
11034;SDS011;5571;48.110;-1.706;2023-09-07T06:38:57;20.73;;;7.30;;
11034;SDS011;5571;48.110;-1.706;2023-09-07T06:41:23;25.35;;;6.65;;
11034;SDS011;5571;48.110;-1.706;2023-09-07T06:43:49;26.73;;;6.95;;
11034;SDS011;5571;48.110;-1.706;2023-09-07T06:46:15;17.55;;;6.55;;
11034;SDS011;5571;48.110;-1.706;2023-09-07T06:48:41;24.20;;;6.95;;
11034;SDS011;5571;48.110;-1.706;2023-09-07T06:51:07;23.95;;;6.95;;
11034;SDS011;5571;48.110;-1.706;2023-09-07T06:53:34;18.95;;;7.05;;
11034;SDS011;5571;48.110;-1.706;2023-09-07T06:56:00;27.02;;;6.70;;
11034;SDS011;5571;48.110;-1.706;2023-09-07T06:58:27;19.42;;;6.75;;
11034;SDS011;5571;48.110;-1.706;2023-09-07T07:00:56;32.55;;;7.30;;
11034;SDS011;5571;48.110;-1.706;2023-09-07T07:03:28;30.25;;;7.03;;
11034;SDS011;5571;48.110;-1.706;2023-09-07T07:05:55;24.45;;;6.70;;
11034;SDS011;5571;48.110;-1.706;2023-09-07T07:08:21;23.55;;;6.53;;
11034;SDS011;5571;48.110;-1.706;2023-09-07T07:10:47;22.98;;;5.90;;
11034;SDS011;5571;48.110;-1.706;2023-09-07T07:13:13;22.95;;;6.45;;
11034;SDS011;5571;48.110;-1.706;2023-09-07T07:15:39;32.33;;;6.75;;
11034;SDS011;5571;48.110;-1.706;2023-09-07T07:18:05;21.27;;;6.30;;
11034;SDS011;5571;48.110;-1.706;2023-09-07T07:20:36;28.40;;;6.78;;
11034;SDS011;5571;48.110;-1.706;2023-09-07T07:23:06;24.58;;;6.60;;
11034;SDS011;5571;48.110;-1.706;2023-09-07T07:25:31;15.25;;;6.13;;
11034;SDS011;5571;48.110;-1.706;2023-09-07T07:27:58;25.17;;;6.13;;
11034;SDS011;5571;48.110;-1.706;2023-09-07T07:30:28;22.00;;;6.80;;
11034;SDS011;5571;48.110;-1.706;2023-09-07T07:32:56;19.17;;;6.20;;
11034;SDS011;5571;48.110;-1.706;2023-09-07T07:35:22;23.02;;;6.60;;
11034;SDS011;5571;48.110;-1.706;2023-09-07T07:37:48;24.35;;;6.22;;
11034;SDS011;5571;48.110;-1.706;2023-09-07T07:40:17;19.67;;;6.03;;
11034;SDS011;5571;48.110;-1.706;2023-09-07T07:42:43;23.15;;;5.85;;
11034;SDS011;5571;48.110;-1.706;2023-09-07T07:45:09;18.80;;;6.07;;
11034;SDS011;5571;48.110;-1.706;2023-09-07T07:47:35;23.08;;;5.72;;
11034;SDS011;5571;48.110;-1.706;2023-09-07T07:50:01;20.20;;;6.07;;
11034;SDS011;5571;48.110;-1.706;2023-09-07T07:52:27;15.80;;;5.88;;
11034;SDS011;5571;48.110;-1.706;2023-09-07T07:54:53;22.85;;;6.00;;
11034;SDS011;5571;48.110;-1.706;2023-09-07T07:57:18;13.43;;;5.07;;
11034;SDS011;5571;48.110;-1.706;2023-09-07T07:59:44;20.73;;;5.47;;
11034;SDS011;5571;48.110;-1.706;2023-09-07T08:02:09;19.45;;;5.32;;
11034;SDS011;5571;48.110;-1.706;2023-09-07T08:04:35;16.92;;;5.40;;
11034;SDS011;5571;48.110;-1.706;2023-09-07T08:07:01;18.38;;;5.32;;
11034;SDS011;5571;48.110;-1.706;2023-09-07T08:09:31;16.60;;;5.80;;
11034;SDS011;5571;48.110;-1.706;2023-09-07T08:11:57;22.67;;;5.65;;
11034;SDS011;5571;48.110;-1.706;2023-09-07T08:14:24;13.40;;;5.10;;
11034;SDS011;5571;48.110;-1.706;2023-09-07T08:16:50;16.42;;;5.68;;
11034;SDS011;5571;48.110;-1.706;2023-09-07T08:19:17;17.95;;;5.88;;
11034;SDS011;5571;48.110;-1.706;2023-09-07T08:21:42;16.30;;;5.50;;
11034;SDS011;5571;48.110;-1.706;2023-09-07T08:24:09;22.63;;;6.03;;
11034;SDS011;5571;48.110;-1.706;2023-09-07T08:26:37;31.98;;;5.95;;
11034;SDS011;5571;48.110;-1.706;2023-09-07T08:29:04;38.95;;;7.10;;
11034;SDS011;5571;48.110;-1.706;2023-09-07T08:31:31;30.27;;;6.53;;
11034;SDS011;5571;48.110;-1.706;2023-09-07T08:34:04;20.55;;;5.65;;
11034;SDS011;5571;48.110;-1.706;2023-09-07T08:36:31;18.58;;;5.43;;
11034;SDS011;5571;48.110;-1.706;2023-09-07T08:38:59;44.97;;;6.85;;
11034;SDS011;5571;48.110;-1.706;2023-09-07T08:41:26;16.85;;;5.78;;
11034;SDS011;5571;48.110;-1.706;2023-09-07T08:43:53;19.08;;;5.93;;
11034;SDS011;5571;48.110;-1.706;2023-09-07T08:46:20;26.95;;;5.72;;
11034;SDS011;5571;48.110;-1.706;2023-09-07T08:48:48;24.38;;;5.65;;
11034;SDS011;5571;48.110;-1.706;2023-09-07T08:51:18;18.30;;;6.00;;
11034;SDS011;5571;48.110;-1.706;2023-09-07T08:53:44;21.75;;;5.65;;
11034;SDS011;5571;48.110;-1.706;2023-09-07T08:56:14;23.60;;;6.25;;
11034;SDS011;5571;48.110;-1.706;2023-09-07T08:58:42;15.07;;;5.45;;
11034;SDS011;5571;48.110;-1.706;2023-09-07T09:01:09;18.73;;;6.25;;
11034;SDS011;5571;48.110;-1.706;2023-09-07T09:03:35;34.30;;;6.65;;
11034;SDS011;5571;48.110;-1.706;2023-09-07T09:06:02;20.02;;;6.18;;
11034;SDS011;5571;48.110;-1.706;2023-09-07T09:08:29;25.25;;;6.18;;
11034;SDS011;5571;48.110;-1.706;2023-09-07T09:10:58;20.58;;;5.88;;
11034;SDS011;5571;48.110;-1.706;2023-09-07T09:13:29;16.80;;;5.88;;
11034;SDS011;5571;48.110;-1.706;2023-09-07T09:15:55;13.70;;;5.13;;
11034;SDS011;5571;48.110;-1.706;2023-09-07T09:18:21;13.45;;;4.95;;
11034;SDS011;5571;48.110;-1.706;2023-09-07T09:20:46;19.05;;;5.45;;
11034;SDS011;5571;48.110;-1.706;2023-09-07T09:23:13;22.70;;;5.93;;
11034;SDS011;5571;48.110;-1.706;2023-09-07T09:25:40;15.07;;;4.88;;
11034;SDS011;5571;48.110;-1.706;2023-09-07T09:28:08;22.02;;;5.10;;
11034;SDS011;5571;48.110;-1.706;2023-09-07T09:30:34;22.10;;;6.00;;
11034;SDS011;5571;48.110;-1.706;2023-09-07T09:33:00;22.52;;;5.95;;
11034;SDS011;5571;48.110;-1.706;2023-09-07T09:35:27;21.23;;;5.55;;
11034;SDS011;5571;48.110;-1.706;2023-09-07T09:37:54;14.52;;;4.97;;
11034;SDS011;5571;48.110;-1.706;2023-09-07T09:40:20;11.90;;;5.07;;
11034;SDS011;5571;48.110;-1.706;2023-09-07T09:42:46;14.45;;;4.60;;
11034;SDS011;5571;48.110;-1.706;2023-09-07T09:45:12;14.27;;;5.30;;
11034;SDS011;5571;48.110;-1.706;2023-09-07T09:47:39;15.27;;;4.90;;
11034;SDS011;5571;48.110;-1.706;2023-09-07T09:50:07;15.50;;;5.18;;
11034;SDS011;5571;48.110;-1.706;2023-09-07T09:52:36;14.63;;;5.28;;
11034;SDS011;5571;48.110;-1.706;2023-09-07T09:55:05;16.05;;;7.07;;
11034;SDS011;5571;48.110;-1.706;2023-09-07T09:57:33;22.75;;;5.47;;
11034;SDS011;5571;48.110;-1.706;2023-09-07T09:59:59;17.05;;;4.88;;
11034;SDS011;5571;48.110;-1.706;2023-09-07T10:02:31;15.27;;;4.72;;
11034;SDS011;5571;48.110;-1.706;2023-09-07T10:05:00;18.48;;;4.95;;
11034;SDS011;5571;48.110;-1.706;2023-09-07T10:07:45;9.88;;;4.72;;
11034;SDS011;5571;48.110;-1.706;2023-09-07T10:10:13;15.10;;;4.85;;
11034;SDS011;5571;48.110;-1.706;2023-09-07T10:12:42;23.38;;;5.22;;
11034;SDS011;5571;48.110;-1.706;2023-09-07T10:15:30;17.23;;;5.43;;
11034;SDS011;5571;48.110;-1.706;2023-09-07T10:20:51;14.60;;;4.90;;
11034;SDS011;5571;48.110;-1.706;2023-09-07T10:23:21;18.80;;;4.65;;
11034;SDS011;5571;48.110;-1.706;2023-09-07T10:25:51;17.30;;;4.07;;
11034;SDS011;5571;48.110;-1.706;2023-09-07T10:28:18;16.15;;;4.18;;
11034;SDS011;5571;48.110;-1.706;2023-09-07T10:33:38;23.08;;;4.90;;
11034;SDS011;5571;48.110;-1.706;2023-09-07T10:36:04;16.92;;;4.18;;
11034;SDS011;5571;48.110;-1.706;2023-09-07T10:38:34;16.15;;;4.63;;
11034;SDS011;5571;48.110;-1.706;2023-09-07T10:41:01;13.57;;;4.93;;
11034;SDS011;5571;48.110;-1.706;2023-09-07T10:43:29;14.45;;;4.53;;
11034;SDS011;5571;48.110;-1.706;2023-09-07T10:45:56;14.70;;;3.95;;
11034;SDS011;5571;48.110;-1.706;2023-09-07T10:48:28;14.43;;;5.00;;
11034;SDS011;5571;48.110;-1.706;2023-09-07T10:50:55;15.25;;;4.97;;
11034;SDS011;5571;48.110;-1.706;2023-09-07T10:53:25;22.05;;;5.85;;
11034;SDS011;5571;48.110;-1.706;2023-09-07T10:56:04;24.15;;;5.80;;
11034;SDS011;5571;48.110;-1.706;2023-09-07T10:58:31;14.98;;;5.82;;
11034;SDS011;5571;48.110;-1.706;2023-09-07T11:00:58;15.38;;;4.85;;
11034;SDS011;5571;48.110;-1.706;2023-09-07T11:03:25;12.82;;;5.60;;
11034;SDS011;5571;48.110;-1.706;2023-09-07T11:06:14;19.42;;;5.50;;
11034;SDS011;5571;48.110;-1.706;2023-09-07T11:08:40;17.92;;;4.95;;
11034;SDS011;5571;48.110;-1.706;2023-09-07T11:11:07;17.75;;;4.70;;
11034;SDS011;5571;48.110;-1.706;2023-09-07T11:13:33;22.02;;;5.22;;
11034;SDS011;5571;48.110;-1.706;2023-09-07T11:15:59;19.20;;;6.45;;
11034;SDS011;5571;48.110;-1.706;2023-09-07T11:18:25;28.98;;;8.50;;
11034;SDS011;5571;48.110;-1.706;2023-09-07T11:20:51;18.55;;;5.40;;
11034;SDS011;5571;48.110;-1.706;2023-09-07T11:23:18;28.83;;;5.15;;
11034;SDS011;5571;48.110;-1.706;2023-09-07T11:25:48;28.45;;;5.95;;
11034;SDS011;5571;48.110;-1.706;2023-09-07T11:28:15;17.55;;;4.95;;
11034;SDS011;5571;48.110;-1.706;2023-09-07T11:30:49;19.73;;;5.18;;
11034;SDS011;5571;48.110;-1.706;2023-09-07T11:33:20;24.65;;;4.97;;
11034;SDS011;5571;48.110;-1.706;2023-09-07T11:35:49;17.65;;;4.82;;
11034;SDS011;5571;48.110;-1.706;2023-09-07T11:38:15;26.02;;;5.65;;
11034;SDS011;5571;48.110;-1.706;2023-09-07T11:40:42;18.73;;;5.40;;
11034;SDS011;5571;48.110;-1.706;2023-09-07T11:43:12;19.48;;;4.97;;
11034;SDS011;5571;48.110;-1.706;2023-09-07T11:45:41;16.10;;;4.95;;
11034;SDS011;5571;48.110;-1.706;2023-09-07T11:48:08;28.15;;;5.50;;
11034;SDS011;5571;48.110;-1.706;2023-09-07T11:50:34;24.77;;;5.00;;
11034;SDS011;5571;48.110;-1.706;2023-09-07T11:53:00;20.55;;;5.05;;
11034;SDS011;5571;48.110;-1.706;2023-09-07T11:55:26;23.63;;;4.95;;
11034;SDS011;5571;48.110;-1.706;2023-09-07T11:57:52;27.60;;;5.50;;
11034;SDS011;5571;48.110;-1.706;2023-09-07T12:00:18;21.95;;;5.70;;
11034;SDS011;5571;48.110;-1.706;2023-09-07T12:02:44;23.60;;;4.95;;
11034;SDS011;5571;48.110;-1.706;2023-09-07T12:05:09;26.45;;;5.50;;
11034;SDS011;5571;48.110;-1.706;2023-09-07T12:07:39;27.58;;;5.57;;
11034;SDS011;5571;48.110;-1.706;2023-09-07T12:10:06;16.52;;;5.20;;
11034;SDS011;5571;48.110;-1.706;2023-09-07T12:12:36;27.88;;;4.90;;
11034;SDS011;5571;48.110;-1.706;2023-09-07T12:15:02;21.02;;;4.65;;
11034;SDS011;5571;48.110;-1.706;2023-09-07T12:17:33;30.33;;;5.53;;
11034;SDS011;5571;48.110;-1.706;2023-09-07T12:19:58;25.77;;;5.88;;
11034;SDS011;5571;48.110;-1.706;2023-09-07T12:22:25;42.92;;;5.95;;
11034;SDS011;5571;48.110;-1.706;2023-09-07T12:24:51;34.08;;;5.68;;
11034;SDS011;5571;48.110;-1.706;2023-09-07T12:27:17;32.17;;;5.60;;
11034;SDS011;5571;48.110;-1.706;2023-09-07T12:29:43;19.25;;;4.80;;
11034;SDS011;5571;48.110;-1.706;2023-09-07T12:32:09;23.92;;;5.13;;
11034;SDS011;5571;48.110;-1.706;2023-09-07T12:34:35;21.95;;;4.85;;
11034;SDS011;5571;48.110;-1.706;2023-09-07T12:37:01;23.15;;;5.47;;
11034;SDS011;5571;48.110;-1.706;2023-09-07T12:39:29;22.75;;;5.65;;
11034;SDS011;5571;48.110;-1.706;2023-09-07T12:41:55;22.50;;;4.60;;
11034;SDS011;5571;48.110;-1.706;2023-09-07T12:44:20;35.38;;;5.93;;
11034;SDS011;5571;48.110;-1.706;2023-09-07T12:46:46;23.05;;;5.00;;
11034;SDS011;5571;48.110;-1.706;2023-09-07T12:49:12;15.20;;;4.05;;
11034;SDS011;5571;48.110;-1.706;2023-09-07T12:51:40;19.52;;;4.25;;
11034;SDS011;5571;48.110;-1.706;2023-09-07T12:54:06;17.70;;;4.78;;
11034;SDS011;5571;48.110;-1.706;2023-09-07T12:56:31;22.42;;;5.00;;
11034;SDS011;5571;48.110;-1.706;2023-09-07T12:58:57;18.25;;;4.80;;
11034;SDS011;5571;48.110;-1.706;2023-09-07T13:01:24;23.90;;;4.95;;
11034;SDS011;5571;48.110;-1.706;2023-09-07T13:03:50;21.25;;;4.90;;
11034;SDS011;5571;48.110;-1.706;2023-09-07T13:06:16;25.48;;;4.78;;
11034;SDS011;5571;48.110;-1.706;2023-09-07T13:08:43;18.90;;;4.97;;
11034;SDS011;5571;48.110;-1.706;2023-09-07T13:11:09;27.73;;;5.43;;
11034;SDS011;5571;48.110;-1.706;2023-09-07T13:13:35;25.85;;;5.72;;
11034;SDS011;5571;48.110;-1.706;2023-09-07T13:16:01;30.23;;;5.63;;
11034;SDS011;5571;48.110;-1.706;2023-09-07T13:18:27;34.30;;;5.25;;
11034;SDS011;5571;48.110;-1.706;2023-09-07T13:20:52;24.85;;;4.88;;
11034;SDS011;5571;48.110;-1.706;2023-09-07T13:23:24;26.23;;;5.03;;
11034;SDS011;5571;48.110;-1.706;2023-09-07T13:25:58;27.70;;;5.28;;
11034;SDS011;5571;48.110;-1.706;2023-09-07T13:28:25;23.65;;;5.25;;
11034;SDS011;5571;48.110;-1.706;2023-09-07T13:30:51;26.80;;;4.90;;
11034;SDS011;5571;48.110;-1.706;2023-09-07T13:33:17;18.50;;;4.78;;
11034;SDS011;5571;48.110;-1.706;2023-09-07T13:35:43;19.52;;;4.57;;
11034;SDS011;5571;48.110;-1.706;2023-09-07T13:38:09;21.40;;;4.57;;
11034;SDS011;5571;48.110;-1.706;2023-09-07T13:40:35;25.75;;;4.55;;
11034;SDS011;5571;48.110;-1.706;2023-09-07T13:43:00;26.45;;;4.88;;
11034;SDS011;5571;48.110;-1.706;2023-09-07T13:45:26;23.23;;;5.10;;
11034;SDS011;5571;48.110;-1.706;2023-09-07T13:47:54;22.15;;;4.35;;
11034;SDS011;5571;48.110;-1.706;2023-09-07T13:50:20;15.80;;;4.57;;
11034;SDS011;5571;48.110;-1.706;2023-09-07T13:52:45;18.05;;;4.32;;
11034;SDS011;5571;48.110;-1.706;2023-09-07T13:55:11;23.70;;;4.70;;
11034;SDS011;5571;48.110;-1.706;2023-09-07T13:57:37;23.38;;;5.18;;
11034;SDS011;5571;48.110;-1.706;2023-09-07T14:00:02;32.40;;;5.15;;
11034;SDS011;5571;48.110;-1.706;2023-09-07T14:02:30;19.02;;;4.28;;
11034;SDS011;5571;48.110;-1.706;2023-09-07T14:04:57;21.42;;;4.50;;
11034;SDS011;5571;48.110;-1.706;2023-09-07T14:07:23;23.80;;;4.80;;
11034;SDS011;5571;48.110;-1.706;2023-09-07T14:09:51;21.15;;;4.47;;
11034;SDS011;5571;48.110;-1.706;2023-09-07T14:12:17;17.65;;;4.47;;
11034;SDS011;5571;48.110;-1.706;2023-09-07T14:14:43;16.25;;;4.25;;
11034;SDS011;5571;48.110;-1.706;2023-09-07T14:17:08;25.48;;;4.80;;
11034;SDS011;5571;48.110;-1.706;2023-09-07T14:19:34;20.05;;;4.60;;
11034;SDS011;5571;48.110;-1.706;2023-09-07T14:21:59;18.92;;;5.00;;
11034;SDS011;5571;48.110;-1.706;2023-09-07T14:24:25;24.95;;;4.78;;
11034;SDS011;5571;48.110;-1.706;2023-09-07T14:26:51;29.45;;;4.60;;
11034;SDS011;5571;48.110;-1.706;2023-09-07T14:29:17;12.85;;;4.40;;
11034;SDS011;5571;48.110;-1.706;2023-09-07T14:31:43;19.95;;;4.75;;
11034;SDS011;5571;48.110;-1.706;2023-09-07T14:34:09;18.13;;;4.72;;
11034;SDS011;5571;48.110;-1.706;2023-09-07T14:36:38;22.38;;;4.75;;